createdAt,value
2022-09-22T00:01:53.450Z,49.60
2022-09-22T00:04:20.958Z,49.63
2022-09-22T00:06:51.335Z,49.47
2022-09-22T00:09:21.419Z,49.60
2022-09-22T00:11:50.712Z,49.80
2022-09-22T00:14:21.058Z,50.30
2022-09-22T00:16:50.298Z,49.13
2022-09-22T00:19:22.771Z,51.43
2022-09-22T00:21:52.134Z,49.93
2022-09-22T00:24:22.511Z,51.93
2022-09-22T00:26:51.039Z,51.40
2022-09-22T00:29:18.875Z,50.50
2022-09-22T00:31:46.588Z,52.70
2022-09-22T00:34:16.496Z,50.27
2022-09-22T00:36:44.015Z,51.80
2022-09-22T00:39:13.833Z,49.90
2022-09-22T00:41:44.752Z,49.90
2022-09-22T00:44:38.790Z,50.63
2022-09-22T00:47:13.450Z,49.13
2022-09-22T00:49:46.549Z,51.40
2022-09-22T00:52:17.218Z,49.70
2022-09-22T00:54:46.252Z,52.43
2022-09-22T00:57:17.155Z,47.63
2022-09-22T00:59:45.126Z,48.60
2022-09-22T01:02:12.810Z,50.30
2022-09-22T01:04:41.272Z,51.40
2022-09-22T01:07:09.415Z,51.63
2022-09-22T01:09:36.982Z,50.97
2022-09-22T01:12:06.476Z,50.80
2022-09-22T01:14:49.674Z,49.80
2022-09-22T01:17:24.295Z,56.63
2022-09-22T01:20:17.336Z,51.13
2022-09-22T01:23:05.541Z,50.90
2022-09-22T01:25:50.402Z,50.47
2022-09-22T01:28:31.396Z,52.37
2022-09-22T01:31:04.668Z,51.47
2022-09-22T01:33:35.147Z,51.53
2022-09-22T01:36:11.963Z,50.27
2022-09-22T01:38:49.229Z,54.20
2022-09-22T01:41:21.102Z,50.37
2022-09-22T01:43:52.283Z,50.37
2022-09-22T01:46:25.049Z,51.20
2022-09-22T01:48:53.649Z,50.80
2022-09-22T01:51:25.510Z,49.57
2022-09-22T01:53:55.483Z,50.83
2022-09-22T01:56:24.255Z,50.87
2022-09-22T01:58:55.419Z,50.47
2022-09-22T02:01:27.089Z,50.67
2022-09-22T02:03:58.568Z,52.03
2022-09-22T02:06:29.324Z,49.80
2022-09-22T02:08:59.783Z,51.00
2022-09-22T02:11:27.502Z,50.50
2022-09-22T02:13:55.215Z,50.17
2022-09-22T02:16:26.083Z,49.60
2022-09-22T02:18:55.374Z,50.57
2022-09-22T02:21:25.866Z,50.53
2022-09-22T02:23:53.379Z,49.43
2022-09-22T02:26:23.821Z,49.27
2022-09-22T02:28:53.943Z,49.57
2022-09-22T02:31:22.616Z,49.87
2022-09-22T02:33:52.974Z,50.27
2022-09-22T02:36:35.686Z,50.83
2022-09-22T02:39:07.776Z,48.40
2022-09-22T02:41:41.743Z,50.10
2022-09-22T02:44:14.662Z,48.90
2022-09-22T02:46:44.722Z,52.13
2022-09-22T02:49:17.200Z,49.80
2022-09-22T02:51:46.516Z,51.30
2022-09-22T02:54:14.906Z,50.73
2022-09-22T02:56:42.426Z,48.17
2022-09-22T02:59:10.328Z,48.83
2022-09-22T03:01:38.437Z,50.90
2022-09-22T03:04:06.520Z,47.47
2022-09-22T03:06:36.657Z,48.90
2022-09-22T03:09:04.490Z,47.17
2022-09-22T03:11:32.033Z,49.90
2022-09-22T03:13:59.623Z,49.03
2022-09-22T03:16:27.143Z,56.77
2022-09-22T03:18:54.735Z,49.60
2022-09-22T03:21:22.298Z,49.40
2022-09-22T03:23:51.131Z,50.83
2022-09-22T03:26:18.680Z,49.07
2022-09-22T03:28:46.181Z,49.43
2022-09-22T03:31:13.778Z,50.23
2022-09-22T03:33:41.647Z,50.63
2022-09-22T03:36:09.338Z,50.03
2022-09-22T03:38:37.003Z,54.30
2022-09-22T03:41:06.179Z,50.33
2022-09-22T03:43:33.699Z,50.10
2022-09-22T03:46:02.019Z,49.90
2022-09-22T03:48:31.019Z,51.60
2022-09-22T03:50:58.700Z,48.50
2022-09-22T03:53:26.267Z,49.10
2022-09-22T03:55:53.802Z,48.83
2022-09-22T03:58:22.712Z,48.83
2022-09-22T04:00:50.391Z,50.73
2022-09-22T04:03:18.440Z,48.10
2022-09-22T04:05:50.631Z,49.67
2022-09-22T04:08:18.245Z,49.73
2022-09-22T04:10:46.695Z,48.20
2022-09-22T04:13:14.769Z,52.40
2022-09-22T04:15:43.822Z,49.63
2022-09-22T04:18:12.784Z,52.87
2022-09-22T04:20:43.370Z,50.03
2022-09-22T04:23:11.279Z,48.73
2022-09-22T04:25:39.120Z,48.83
2022-09-22T04:28:07.335Z,50.27
2022-09-22T04:30:35.556Z,52.40
2022-09-22T04:33:04.870Z,47.70
2022-09-22T04:35:32.399Z,51.77
2022-09-22T04:38:00.566Z,50.20
2022-09-22T04:40:28.437Z,49.30
2022-09-22T04:42:55.992Z,49.13
2022-09-22T04:45:23.554Z,49.80
2022-09-22T04:47:52.026Z,50.13
2022-09-22T04:50:22.570Z,50.13
2022-09-22T04:52:51.255Z,49.80
2022-09-22T04:55:19.315Z,49.37
2022-09-22T04:57:49.298Z,49.90
2022-09-22T05:00:17.715Z,48.97
2022-09-22T05:05:29.880Z,57.80
2022-09-22T05:07:57.410Z,51.13
2022-09-22T05:10:25.679Z,50.17
2022-09-22T05:12:54.372Z,46.73
2022-09-22T05:15:22.666Z,48.53
2022-09-22T05:17:51.237Z,50.40
2022-09-22T05:20:19.275Z,46.83
2022-09-22T05:22:48.565Z,51.93
2022-09-22T05:25:17.750Z,50.70
2022-09-22T05:27:45.758Z,48.30
2022-09-22T05:30:13.999Z,48.47
2022-09-22T05:32:43.799Z,48.70
2022-09-22T05:35:11.652Z,48.63
2022-09-22T05:37:39.245Z,49.77
2022-09-22T05:40:09.226Z,49.90
2022-09-22T05:42:40.690Z,47.20
2022-09-22T05:45:09.567Z,49.97
2022-09-22T05:47:37.095Z,50.90
2022-09-22T05:50:05.386Z,46.87
2022-09-22T05:52:32.924Z,46.57
2022-09-22T05:55:00.432Z,47.40
2022-09-22T05:57:31.704Z,47.13
2022-09-22T05:59:59.645Z,48.57
2022-09-22T06:02:27.384Z,47.67
2022-09-22T06:04:55.388Z,48.20
2022-09-22T06:07:24.068Z,45.97
2022-09-22T06:09:52.036Z,48.47
2022-09-22T06:12:19.996Z,49.60
2022-09-22T06:14:48.923Z,51.30
2022-09-22T06:17:16.690Z,48.17
2022-09-22T06:19:50.083Z,49.37
2022-09-22T06:22:18.550Z,47.27
2022-09-22T06:24:46.264Z,48.80
2022-09-22T06:27:14.042Z,47.20
2022-09-22T06:29:42.367Z,46.60
2022-09-22T06:32:11.506Z,48.93
2022-09-22T06:34:39.321Z,49.57
2022-09-22T06:37:09.604Z,47.30
2022-09-22T06:39:37.646Z,46.73
2022-09-22T06:42:05.852Z,46.90
2022-09-22T06:44:33.576Z,46.73
2022-09-22T06:47:05.218Z,45.90
2022-09-22T06:49:34.163Z,51.47
2022-09-22T06:52:03.762Z,46.00
2022-09-22T06:54:32.454Z,48.10
2022-09-22T06:57:00.029Z,47.03
2022-09-22T06:59:28.937Z,48.60
2022-09-22T07:01:56.663Z,48.17
2022-09-22T07:04:24.264Z,52.63
2022-09-22T07:06:53.152Z,49.20
2022-09-22T07:09:21.156Z,44.87
2022-09-22T07:11:49.387Z,45.30
2022-09-22T07:14:20.987Z,51.03
2022-09-22T07:16:48.625Z,46.90
2022-09-22T07:19:16.391Z,47.93
2022-09-22T07:21:45.356Z,47.57
2022-09-22T07:24:14.876Z,49.00
2022-09-22T07:26:44.021Z,47.30
2022-09-22T07:29:13.331Z,46.47
2022-09-22T07:31:41.756Z,47.10
2022-09-22T07:34:09.494Z,48.70
2022-09-22T07:36:37.889Z,48.67
2022-09-22T07:39:08.031Z,45.50
2022-09-22T07:41:41.752Z,46.30
2022-09-22T07:44:27.875Z,50.70
2022-09-22T07:46:55.730Z,43.43
2022-09-22T07:49:23.404Z,48.73
2022-09-22T07:51:54.664Z,49.70
2022-09-22T07:54:22.608Z,48.27
2022-09-22T07:56:56.003Z,46.73
2022-09-22T07:59:23.528Z,47.40
2022-09-22T08:01:52.263Z,49.50
2022-09-22T08:04:22.815Z,48.87
2022-09-22T08:06:55.345Z,53.63
2022-09-22T08:09:23.728Z,47.30
2022-09-22T08:11:53.131Z,49.73
2022-09-22T08:14:23.422Z,52.70
2022-09-22T08:16:51.851Z,47.03
2022-09-22T08:19:21.059Z,48.60
2022-09-22T08:21:50.985Z,48.53
2022-09-22T08:24:21.595Z,49.20
2022-09-22T08:26:50.315Z,48.53
2022-09-22T08:29:19.289Z,46.87
2022-09-22T08:31:49.255Z,47.13
2022-09-22T08:34:18.215Z,47.70
2022-09-22T08:36:48.437Z,51.20
2022-09-22T08:39:17.173Z,45.33
2022-09-22T08:41:56.680Z,48.60
2022-09-22T08:44:28.136Z,47.37
2022-09-22T08:46:57.545Z,49.50
2022-09-22T08:49:45.379Z,49.03
2022-09-22T08:52:17.819Z,47.73
2022-09-22T08:54:46.108Z,47.50
2022-09-22T08:57:39.080Z,49.40
2022-09-22T09:00:13.108Z,49.57
2022-09-22T09:02:42.416Z,48.53
2022-09-22T09:05:51.307Z,47.93
2022-09-22T09:09:04.010Z,48.70
2022-09-22T09:11:45.364Z,48.33
2022-09-22T09:14:24.871Z,54.00
2022-09-22T09:16:57.839Z,50.80
2022-09-22T09:19:30.537Z,49.27
2022-09-22T09:22:03.469Z,48.03
2022-09-22T09:27:24.390Z,46.37
2022-09-22T09:29:58.949Z,51.03
2022-09-22T09:32:34.457Z,48.67
2022-09-22T09:35:02.848Z,50.30
2022-09-22T09:37:31.307Z,50.07
2022-09-22T09:40:02.923Z,48.00
2022-09-22T09:42:34.784Z,50.77
2022-09-22T09:45:03.462Z,49.77
2022-09-22T09:47:47.919Z,48.93
2022-09-22T09:50:16.426Z,49.90
2022-09-22T09:52:44.006Z,51.47
2022-09-22T09:55:26.584Z,50.07
2022-09-22T09:58:09.040Z,53.43
2022-09-22T10:00:53.716Z,50.67
2022-09-22T10:03:28.039Z,50.20
2022-09-22T10:06:02.786Z,51.80
2022-09-22T10:08:36.384Z,49.50
2022-09-22T10:11:04.488Z,50.00
2022-09-22T10:13:34.493Z,48.50
2022-09-22T10:16:05.640Z,49.83
2022-09-22T10:18:40.513Z,49.57
2022-09-22T10:21:15.327Z,53.03
2022-09-22T10:23:44.779Z,49.87
2022-09-22T10:26:18.317Z,51.93
2022-09-22T10:28:50.714Z,55.93
2022-09-22T10:31:22.178Z,52.47
2022-09-22T10:33:58.585Z,53.60
2022-09-22T10:36:27.000Z,51.40
2022-09-22T10:38:58.917Z,50.47
2022-09-22T10:41:34.000Z,52.33
2022-09-22T10:44:27.339Z,55.83
2022-09-22T10:47:21.554Z,52.27
2022-09-22T10:50:07.025Z,53.27
2022-09-22T10:52:41.296Z,50.20
2022-09-22T10:55:20.612Z,51.73
2022-09-22T10:58:02.031Z,48.77
2022-09-22T11:00:29.928Z,50.20
2022-09-22T11:03:20.146Z,50.23
2022-09-22T11:06:17.910Z,51.93
2022-09-22T11:09:06.701Z,54.93
2022-09-22T11:11:55.923Z,51.60
2022-09-22T11:14:35.114Z,51.60
2022-09-22T11:17:17.018Z,51.40
2022-09-22T11:20:05.248Z,53.50
2022-09-22T11:22:54.319Z,49.83
2022-09-22T11:25:32.162Z,51.47
2022-09-22T11:28:10.783Z,51.43
2022-09-22T11:30:41.796Z,49.43
2022-09-22T11:33:40.053Z,50.10
2022-09-22T11:36:19.587Z,51.70
2022-09-22T11:39:12.468Z,54.73
2022-09-22T11:41:42.260Z,53.70
2022-09-22T11:44:37.732Z,55.83
2022-09-22T11:47:19.251Z,50.50
2022-09-22T11:50:05.885Z,54.87
2022-09-22T11:52:44.307Z,50.50
2022-09-22T11:55:23.443Z,52.17
2022-09-22T11:57:54.280Z,52.00
2022-09-22T12:00:22.463Z,54.03
2022-09-22T12:03:01.780Z,54.63
2022-09-22T12:05:35.221Z,51.10
2022-09-22T12:08:06.808Z,52.40
2022-09-22T12:10:37.909Z,50.30
2022-09-22T12:13:08.860Z,54.10
2022-09-22T12:15:39.104Z,52.03
2022-09-22T12:18:10.811Z,52.20
2022-09-22T12:20:46.698Z,54.10
2022-09-22T12:23:18.959Z,51.53
2022-09-22T12:25:50.937Z,52.63
2022-09-22T12:28:20.684Z,52.33
2022-09-22T12:31:00.152Z,54.27
2022-09-22T12:33:28.487Z,56.97
2022-09-22T12:35:56.839Z,52.57
2022-09-22T12:38:25.113Z,51.73
2022-09-22T12:40:57.600Z,52.07
2022-09-22T12:43:26.239Z,53.40
2022-09-22T12:45:55.021Z,58.00
2022-09-22T12:48:24.729Z,52.37
2022-09-22T12:50:53.208Z,55.47
2022-09-22T12:53:26.360Z,56.50
2022-09-22T12:55:56.523Z,50.50
2022-09-22T12:58:43.731Z,52.00
2022-09-22T13:01:34.994Z,50.67
2022-09-22T13:04:20.561Z,56.20
2022-09-22T13:06:56.843Z,56.30
2022-09-22T13:09:26.892Z,54.17
2022-09-22T13:15:17.804Z,59.07
2022-09-22T13:17:46.627Z,55.77
2022-09-22T13:20:16.367Z,53.50
2022-09-22T13:22:44.451Z,58.47
2022-09-22T13:25:17.584Z,54.23
2022-09-22T13:27:45.873Z,56.00
2022-09-22T13:30:16.003Z,55.57
2022-09-22T13:32:49.591Z,55.80
2022-09-22T13:35:25.455Z,53.93
2022-09-22T13:37:56.044Z,54.80
2022-09-22T13:40:27.923Z,56.70
2022-09-22T13:42:57.607Z,57.87
2022-09-22T13:45:27.571Z,52.40
2022-09-22T13:47:57.851Z,52.73
2022-09-22T13:50:25.884Z,54.57
2022-09-22T13:52:53.909Z,55.10
2022-09-22T13:55:26.203Z,55.63
2022-09-22T13:57:57.036Z,54.93
2022-09-22T14:00:31.358Z,55.37
2022-09-22T14:03:00.054Z,55.37
2022-09-22T14:05:30.030Z,53.43
2022-09-22T14:08:12.004Z,52.60
2022-09-22T14:10:42.226Z,52.33
2022-09-22T14:13:37.086Z,51.90
2022-09-22T14:16:14.983Z,54.80
2022-09-22T14:18:43.938Z,54.17
2022-09-22T14:21:12.047Z,55.60
2022-09-22T14:23:44.805Z,53.33
2022-09-22T14:26:29.513Z,53.47
2022-09-22T14:28:59.063Z,52.53
2022-09-22T14:31:30.027Z,54.30
2022-09-22T14:33:57.675Z,54.10
2022-09-22T14:36:26.681Z,54.03
2022-09-22T14:39:08.036Z,55.37
2022-09-22T14:41:38.497Z,56.40
2022-09-22T14:44:28.039Z,66.07
2022-09-22T14:46:57.350Z,55.53
2022-09-22T14:49:43.213Z,58.73
2022-09-22T14:52:19.868Z,52.90
2022-09-22T14:54:47.380Z,53.13
2022-09-22T14:57:17.362Z,54.57
2022-09-22T15:00:06.730Z,59.13
2022-09-22T15:02:41.410Z,53.93
2022-09-22T15:05:11.669Z,58.47
2022-09-22T15:07:40.263Z,55.40
2022-09-22T15:10:18.707Z,56.90
2022-09-22T15:12:49.591Z,56.47
2022-09-22T15:15:20.114Z,53.57
2022-09-22T15:18:07.486Z,55.63
2022-09-22T15:20:42.593Z,53.53
2022-09-22T15:23:15.731Z,53.47
2022-09-22T15:25:43.766Z,59.60
2022-09-22T15:28:15.583Z,55.17
2022-09-22T15:30:44.290Z,60.13
2022-09-22T15:33:15.528Z,55.03
2022-09-22T15:35:44.657Z,55.30
2022-09-22T15:38:17.814Z,54.77
2022-09-22T15:40:46.632Z,54.47
2022-09-22T15:43:20.563Z,61.73
2022-09-22T15:45:49.411Z,55.37
2022-09-22T15:48:23.611Z,55.20
2022-09-22T15:50:51.706Z,55.30
2022-09-22T15:53:19.236Z,53.87
2022-09-22T15:55:47.846Z,56.87
2022-09-22T15:58:16.758Z,52.77
2022-09-22T16:00:44.268Z,54.30
2022-09-22T16:03:16.353Z,54.70
2022-09-22T16:05:45.735Z,55.50
2022-09-22T16:08:16.082Z,55.07
2022-09-22T16:10:44.168Z,56.27
2022-09-22T16:13:12.773Z,56.93
2022-09-22T16:15:40.485Z,55.10
2022-09-22T16:18:08.321Z,53.90
2022-09-22T16:20:37.614Z,53.50
2022-09-22T16:23:07.494Z,57.20
2022-09-22T16:25:35.023Z,56.30
2022-09-22T16:28:02.975Z,56.20
2022-09-22T16:30:30.487Z,56.93
2022-09-22T16:32:57.963Z,54.70
2022-09-22T16:35:25.577Z,56.20
2022-09-22T16:37:57.102Z,59.60
2022-09-22T16:40:28.430Z,55.30
2022-09-22T16:42:55.999Z,54.43
2022-09-22T16:45:38.554Z,57.27
2022-09-22T16:48:07.275Z,56.37
2022-09-22T16:50:37.616Z,53.53
2022-09-22T16:53:07.430Z,53.10
2022-09-22T16:55:37.568Z,56.17
2022-09-22T16:58:07.307Z,54.37
2022-09-22T17:00:34.981Z,54.00
2022-09-22T17:03:02.489Z,55.97
2022-09-22T17:05:32.747Z,57.13
2022-09-22T17:08:05.935Z,54.63
2022-09-22T17:10:35.792Z,54.23
2022-09-22T17:13:05.154Z,53.87
2022-09-22T17:15:35.715Z,54.60
2022-09-22T17:18:04.397Z,58.70
2022-09-22T17:20:31.994Z,54.77
2022-09-22T17:22:59.653Z,57.43
2022-09-22T17:25:29.181Z,57.53
2022-09-22T17:27:57.586Z,57.07
2022-09-22T17:30:26.415Z,58.10
2022-09-22T17:32:54.136Z,54.27
2022-09-22T17:35:21.651Z,64.00
2022-09-22T17:37:51.726Z,55.63
2022-09-22T17:40:19.519Z,59.20
2022-09-22T17:42:47.584Z,58.10
2022-09-22T17:45:15.446Z,53.67
2022-09-22T17:48:01.967Z,56.33
2022-09-22T17:50:47.315Z,52.80
2022-09-22T17:53:32.446Z,55.77
2022-09-22T17:56:04.943Z,54.13
2022-09-22T17:58:32.773Z,53.57
2022-09-22T18:01:00.548Z,54.10
2022-09-22T18:03:29.372Z,54.50
2022-09-22T18:05:57.299Z,56.10
2022-09-22T18:08:25.129Z,53.77
2022-09-22T18:10:52.625Z,55.47
2022-09-22T18:13:20.126Z,52.00
2022-09-22T18:15:47.657Z,56.70
2022-09-22T18:18:15.180Z,51.20
2022-09-22T18:20:43.999Z,56.60
2022-09-22T18:23:12.327Z,54.40
2022-09-22T18:25:41.287Z,53.47
2022-09-22T18:28:08.770Z,54.90
2022-09-22T18:30:39.884Z,54.10
2022-09-22T18:33:07.399Z,53.80
2022-09-22T18:35:34.906Z,56.53
2022-09-22T18:38:03.878Z,51.07
2022-09-22T18:40:32.331Z,52.37
2022-09-22T18:42:59.831Z,52.57
2022-09-22T18:45:28.023Z,58.77
2022-09-22T18:47:59.431Z,51.33
2022-09-22T18:50:28.019Z,51.97
2022-09-22T18:52:56.689Z,51.40
2022-09-22T18:55:25.922Z,54.00
2022-09-22T18:57:53.982Z,51.30
2022-09-22T19:00:22.087Z,65.53
2022-09-22T19:02:50.260Z,52.57
2022-09-22T19:05:17.958Z,53.70
2022-09-22T19:07:47.581Z,56.13
2022-09-22T19:10:20.415Z,53.90
2022-09-22T19:12:49.485Z,53.10
2022-09-22T19:15:18.838Z,52.30
2022-09-22T19:17:49.155Z,53.60
2022-09-22T19:20:18.195Z,53.77
2022-09-22T19:22:46.831Z,55.30
2022-09-22T19:25:14.876Z,53.50
2022-09-22T19:27:42.392Z,59.07
2022-09-22T19:30:12.259Z,56.27
2022-09-22T19:32:40.687Z,54.47
2022-09-22T19:35:09.456Z,55.13
2022-09-22T19:37:37.199Z,54.47
2022-09-22T19:40:05.649Z,56.57
2022-09-22T19:42:37.998Z,54.30
2022-09-22T19:45:07.937Z,55.60
2022-09-22T19:47:36.794Z,51.17
2022-09-22T19:50:07.940Z,55.43
2022-09-22T19:52:35.925Z,53.63
2022-09-22T19:55:03.437Z,52.50
2022-09-22T19:57:31.812Z,51.80
2022-09-22T19:59:59.302Z,51.93
2022-09-22T20:02:26.819Z,53.93
2022-09-22T20:04:55.807Z,52.50
2022-09-22T20:07:27.619Z,52.70
2022-09-22T20:09:56.149Z,55.33
2022-09-22T20:12:24.062Z,52.23
2022-09-22T20:14:51.678Z,54.07
2022-09-22T20:17:19.203Z,53.00
2022-09-22T20:19:46.690Z,55.07
2022-09-22T20:22:25.076Z,51.57
2022-09-22T20:24:55.483Z,55.57
2022-09-22T20:27:23.984Z,51.87
2022-09-22T20:29:56.272Z,52.73
2022-09-22T20:32:25.424Z,51.90
2022-09-22T20:34:54.004Z,53.80
2022-09-22T20:37:23.267Z,52.47
2022-09-22T20:39:50.799Z,51.53
2022-09-22T20:42:18.363Z,51.43
2022-09-22T20:44:46.820Z,50.60
2022-09-22T20:47:15.574Z,54.47
2022-09-22T20:49:44.288Z,53.57
2022-09-22T20:52:15.214Z,51.10
2022-09-22T20:54:44.765Z,52.77
2022-09-22T20:57:12.270Z,52.07
2022-09-22T20:59:40.204Z,51.30
2022-09-22T21:02:08.076Z,50.80
2022-09-22T21:04:35.578Z,57.00
2022-09-22T21:07:03.071Z,53.63
2022-09-22T21:09:48.123Z,50.33
2022-09-22T21:12:16.963Z,54.23
2022-09-22T21:14:45.070Z,52.73
2022-09-22T21:17:13.600Z,53.90
2022-09-22T21:19:41.194Z,54.90
2022-09-22T21:22:08.757Z,53.20
2022-09-22T21:24:36.247Z,54.50
2022-09-22T21:27:03.756Z,54.53
2022-09-22T21:29:32.611Z,53.20
2022-09-22T21:32:00.464Z,54.03
2022-09-22T21:34:27.959Z,55.53
2022-09-22T21:36:55.444Z,52.87
2022-09-22T21:39:23.137Z,52.50
2022-09-22T21:41:50.761Z,53.80
2022-09-22T21:44:18.259Z,55.37
2022-09-22T21:46:47.607Z,55.20
2022-09-22T21:49:15.206Z,52.83
2022-09-22T21:51:44.266Z,54.00
2022-09-22T21:54:13.750Z,58.63
2022-09-22T21:56:41.272Z,53.47
2022-09-22T21:59:09.395Z,51.90
2022-09-22T22:01:39.185Z,52.80
2022-09-22T22:04:08.841Z,59.57
2022-09-22T22:06:40.621Z,51.73
2022-09-22T22:09:11.811Z,50.30
2022-09-22T22:11:40.531Z,51.93
2022-09-22T22:14:09.553Z,60.83
2022-09-22T22:16:38.829Z,51.47
2022-09-22T22:19:08.327Z,52.37
2022-09-22T22:21:36.124Z,51.17
2022-09-22T22:24:22.736Z,54.00
2022-09-22T22:26:52.374Z,53.70
2022-09-22T22:29:20.895Z,52.87
2022-09-22T22:31:49.643Z,52.83
2022-09-22T22:34:19.899Z,55.37
2022-09-22T22:36:48.558Z,53.40
2022-09-22T22:39:16.370Z,50.63
2022-09-22T22:41:44.415Z,51.77
2022-09-22T22:44:12.830Z,56.73
2022-09-22T22:46:40.411Z,51.93
2022-09-22T22:49:08.247Z,52.60
2022-09-22T22:51:37.423Z,50.30
2022-09-22T22:54:05.551Z,54.87
2022-09-22T22:56:33.595Z,56.00
2022-09-22T22:59:01.229Z,53.00
2022-09-22T23:01:30.818Z,53.37
2022-09-22T23:04:00.385Z,53.43
2022-09-22T23:06:29.633Z,52.63
2022-09-22T23:08:58.554Z,51.23
2022-09-22T23:11:27.877Z,52.97
2022-09-22T23:13:59.378Z,52.43
2022-09-22T23:16:28.264Z,53.03
2022-09-22T23:18:58.092Z,52.83
2022-09-22T23:21:26.255Z,53.33
2022-09-22T23:23:55.417Z,54.07
2022-09-22T23:26:24.882Z,49.83
2022-09-22T23:28:52.940Z,56.83
2022-09-22T23:31:22.362Z,51.60
2022-09-22T23:33:52.006Z,52.13
2022-09-22T23:36:22.392Z,51.00
2022-09-22T23:38:54.087Z,53.47
2022-09-22T23:41:21.843Z,50.97
2022-09-22T23:43:50.944Z,50.50
2022-09-22T23:46:18.863Z,51.70
2022-09-22T23:48:47.293Z,49.00
2022-09-22T23:51:15.100Z,49.70
2022-09-22T23:53:42.755Z,50.07
2022-09-22T23:56:10.460Z,50.73
2022-09-22T23:58:38.869Z,50.30
